Time,TemperatureF,DewpointF,PressureIn,WindDirection,WindDirectionDegrees,WindSpeedMPH,WindSpeedGustMPH,Humidity,HourlyPrecipIn,Conditions,Clouds,dailyrainin,SoftwareType,DateUTC
2013-01-30 00:03:00,34.2,32.3,29.47,NNE,23,4.7,6.9,93,0.06,,,0.01,WUHU216HW,2013-01-30 06:03:00,
2013-01-30 00:08:00,34.2,32.3,29.45,NNE,23,4.7,9.6,93,0.05,,,0.01,WUHU216HW,2013-01-30 06:08:00,
2013-01-30 00:13:00,34.2,32.3,29.44,North,0,5.6,9.6,93,0.06,,,0.02,WUHU216HW,2013-01-30 06:13:00,
2013-01-30 00:18:00,34.2,32.6,29.44,North,0,5.1,9.2,94,0.06,,,0.02,WUHU216HW,2013-01-30 06:18:00,
2013-01-30 00:23:00,34.2,32.6,29.43,NNW,338,6.3,8.3,94,0.05,,,0.02,WUHU216HW,2013-01-30 06:23:00,
2013-01-30 00:28:00,34.2,32.3,29.43,North,0,4.9,8.1,93,0.05,,,0.03,WUHU216HW,2013-01-30 06:28:00,
2013-01-30 00:33:00,34.4,32.5,29.43,NNE,23,8.1,9.2,93,0.05,,,0.03,WUHU216HW,2013-01-30 06:33:00,
2013-01-30 00:38:00,34.4,32.8,29.43,North,0,3.4,9.2,94,0.04,,,0.03,WUHU216HW,2013-01-30 06:38:00,
2013-01-30 00:43:00,34.4,32.8,29.45,NNE,23,3.1,8.3,94,0.04,,,0.03,WUHU216HW,2013-01-30 06:43:00,
2013-01-30 00:48:00,34.4,32.5,29.45,NNE,23,4.9,6.9,93,0.03,,,0.03,WUHU216HW,2013-01-30 06:48:00,
2013-01-30 00:54:00,34.4,32.5,29.46,NNW,338,3.8,6.9,93,0.03,,,0.03,WUHU216HW,2013-01-30 06:54:00,
2013-01-30 00:59:00,34.6,32.7,29.46,NW,315,6.5,6.9,93,0.04,,,0.04,WUHU216HW,2013-01-30 06:59:00,
2013-01-30 01:04:00,34.4,32.5,29.46,North,0,4.7,7.2,93,0.03,,,0.04,WUHU216HW,2013-01-30 07:04:00,
2013-01-30 01:09:00,34.4,32.5,29.46,North,0,4.3,7.6,93,0.03,,,0.04,WUHU216HW,2013-01-30 07:09:00,
2013-01-30 01:14:00,34.6,32.7,29.45,North,0,5.4,7.6,93,0.02,,,0.04,WUHU216HW,2013-01-30 07:14:00,
2013-01-30 01:19:00,34.4,32.5,29.44,NNE,23,2.7,7.2,93,0.03,,,0.05,WUHU216HW,2013-01-30 07:19:00,
2013-01-30 01:24:00,34.4,32.5,29.42,North,0,2.9,8.3,93,0.03,,,0.06,WUHU216HW,2013-01-30 07:24:00,
2013-01-30 01:29:00,34.4,32.5,29.41,NW,315,2.2,8.5,93,0.03,,,0.06,WUHU216HW,2013-01-30 07:29:00,
2013-01-30 01:34:00,34.4,32.5,29.41,NE,45,2.9,8.5,93,0.04,,,0.07,WUHU216HW,2013-01-30 07:34:00,
2013-01-30 01:39:00,34.4,32.5,29.41,North,0,2.5,6.3,93,0.05,,,0.08,WUHU216HW,2013-01-30 07:39:00,
2013-01-30 01:44:00,34.2,32.3,29.40,WNW,293,1.6,6.9,93,0.05,,,0.08,WUHU216HW,2013-01-30 07:44:00,
2013-01-30 01:49:00,34.2,32.3,29.40,NE,45,1.8,6.9,93,0.05,,,0.08,WUHU216HW,2013-01-30 07:49:00,
2013-01-30 01:54:00,34.2,32.3,29.40,NNW,338,2.0,6.3,93,0.05,,,0.08,WUHU216HW,2013-01-30 07:54:00,
2013-01-30 01:59:00,34.2,32.3,29.39,NE,45,1.1,4.9,93,0.04,,,0.08,WUHU216HW,2013-01-30 07:59:00,
2013-01-30 02:04:00,34.2,32.3,29.40,NNE,23,4.7,6.7,93,0.04,,,0.08,WUHU216HW,2013-01-30 08:04:00,
2013-01-30 02:09:00,34.2,32.3,29.40,ENE,68,1.8,6.7,93,0.04,,,0.08,WUHU216HW,2013-01-30 08:09:00,
2013-01-30 02:14:00,34.0,32.1,29.40,North,0,5.6,5.6,93,0.03,,,0.08,WUHU216HW,2013-01-30 08:14:00,
2013-01-30 02:19:00,34.0,32.1,29.40,ESE,113,1.3,5.6,93,0.03,,,0.08,WUHU216HW,2013-01-30 08:19:00,
2013-01-30 02:24:00,34.0,32.1,29.41,North,0,5.6,5.6,93,0.02,,,0.08,WUHU216HW,2013-01-30 08:24:00,
2013-01-30 02:29:00,34.0,31.9,29.42,NNW,338,8.5,8.5,92,0.01,,,0.08,WUHU216HW,2013-01-30 08:29:00,
2013-01-30 02:34:00,34.0,31.9,29.42,NNE,23,9.4,10.5,92,0.01,,,0.08,WUHU216HW,2013-01-30 08:34:00,
2013-01-30 02:39:00,34.0,31.9,29.43,NNW,338,2.0,11.6,92,0.00,,,0.08,WUHU216HW,2013-01-30 08:39:00,
2013-01-30 02:44:00,33.8,31.7,29.43,NNE,23,6.3,11.6,92,0.00,,,0.08,WUHU216HW,2013-01-30 08:44:00,
2013-01-30 02:49:00,34.0,31.6,29.44,NW,315,6.9,10.5,91,0.00,,,0.08,WUHU216HW,2013-01-30 08:49:00,
2013-01-30 02:54:00,33.8,31.4,29.44,North,0,6.3,9.2,91,0.00,,,0.08,WUHU216HW,2013-01-30 08:54:00,
2013-01-30 02:59:00,33.8,31.4,29.44,NE,45,5.1,7.6,91,0.00,,,0.08,WUHU216HW,2013-01-30 08:59:00,
2013-01-30 03:04:00,33.8,31.4,29.44,NNW,338,3.4,6.9,91,0.00,,,0.08,WUHU216HW,2013-01-30 09:04:00,
2013-01-30 03:09:00,33.7,31.2,29.44,North,0,4.0,8.1,91,0.00,,,0.08,WUHU216HW,2013-01-30 09:09:00,
2013-01-30 03:14:00,33.5,31.1,29.44,North,0,6.9,8.1,91,0.00,,,0.08,WUHU216HW,2013-01-30 09:14:00,
2013-01-30 03:19:00,33.5,31.1,29.44,NNE,23,6.3,7.6,91,0.00,,,0.08,WUHU216HW,2013-01-30 09:19:00,
2013-01-30 03:24:00,33.3,31.0,29.44,NNW,338,5.1,8.9,91,0.00,,,0.08,WUHU216HW,2013-01-30 09:24:00,
2013-01-30 03:29:00,33.1,30.8,29.44,NNW,338,7.2,9.2,91,0.00,,,0.08,WUHU216HW,2013-01-30 09:29:00,
2013-01-30 03:34:00,32.9,30.9,29.43,NW,315,3.4,9.2,92,0.00,,,0.08,WUHU216HW,2013-01-30 09:34:00,
2013-01-30 03:39:00,32.9,30.9,29.42,NNE,23,1.8,8.1,92,0.00,,,0.08,WUHU216HW,2013-01-30 09:39:00,
2013-01-30 03:44:00,32.8,30.7,29.40,NNW,338,2.5,5.4,92,0.00,,,0.08,WUHU216HW,2013-01-30 09:44:00,
2013-01-30 03:49:00,32.8,30.7,29.40,North,0,4.0,5.4,92,0.00,,,0.08,WUHU216HW,2013-01-30 09:49:00,
2013-01-30 03:54:00,32.6,30.5,29.41,NNW,338,2.5,5.4,92,0.00,,,0.08,WUHU216HW,2013-01-30 09:54:00,
2013-01-30 03:59:00,32.6,30.5,29.43,North,0,2.0,6.5,92,0.00,,,0.08,WUHU216HW,2013-01-30 09:59:00,
2013-01-30 04:04:00,32.6,30.5,29.44,North,0,3.6,6.5,92,0.00,,,0.08,WUHU216HW,2013-01-30 10:04:00,
2013-01-30 04:09:00,32.6,30.8,29.44,NE,45,1.8,5.1,93,0.00,,,0.08,WUHU216HW,2013-01-30 10:09:00,
2013-01-30 04:14:00,32.8,30.7,29.44,NNE,23,4.0,6.3,92,0.00,,,0.08,WUHU216HW,2013-01-30 10:14:00,
2013-01-30 04:19:00,32.6,30.5,29.44,North,0,2.9,6.3,92,0.00,,,0.08,WUHU216HW,2013-01-30 10:19:00,
2013-01-30 04:24:00,32.6,30.5,29.43,North,0,2.5,4.7,92,0.00,,,0.08,WUHU216HW,2013-01-30 10:24:00,
2013-01-30 04:29:00,32.6,30.5,29.41,NNE,23,1.8,6.3,92,0.00,,,0.08,WUHU216HW,2013-01-30 10:29:00,
2013-01-30 04:34:00,32.4,30.3,29.40,WNW,293,0.9,6.3,92,0.00,,,0.08,WUHU216HW,2013-01-30 10:34:00,
2013-01-30 04:39:00,32.4,30.3,29.37,North,0,3.6,6.3,92,0.00,,,0.08,WUHU216HW,2013-01-30 10:39:00,
2013-01-30 04:44:00,32.4,30.3,29.39,North,0,6.0,6.3,92,0.00,,,0.08,WUHU216HW,2013-01-30 10:44:00,
2013-01-30 04:49:00,32.4,30.3,29.40,NNE,23,1.8,6.3,92,0.00,,,0.08,WUHU216HW,2013-01-30 10:49:00,
2013-01-30 04:54:00,32.2,30.2,29.38,NNW,338,4.5,6.0,92,0.00,,,0.08,WUHU216HW,2013-01-30 10:54:00,
2013-01-30 04:59:00,32.2,30.2,29.35,NNE,23,2.7,9.2,92,0.00,,,0.08,WUHU216HW,2013-01-30 10:59:00,
2013-01-30 05:04:00,32.2,30.2,29.36,North,0,4.7,9.2,92,0.00,,,0.08,WUHU216HW,2013-01-30 11:04:00,
2013-01-30 05:09:00,32.2,30.2,29.36,NNE,23,1.3,8.7,92,0.00,,,0.08,WUHU216HW,2013-01-30 11:09:00,
2013-01-30 05:14:00,32.2,30.2,29.36,NNW,338,9.2,9.4,92,0.00,,,0.08,WUHU216HW,2013-01-30 11:14:00,
2013-01-30 05:19:00,32.2,30.2,29.37,NNW,338,6.7,9.4,92,0.00,,,0.08,WUHU216HW,2013-01-30 11:19:00,
2013-01-30 05:24:00,32.2,30.2,29.38,North,0,3.1,9.2,92,0.00,,,0.08,WUHU216HW,2013-01-30 11:24:00,
2013-01-30 05:29:00,32.2,30.2,29.39,North,0,2.0,7.2,92,0.00,,,0.08,WUHU216HW,2013-01-30 11:29:00,
2013-01-30 05:34:00,32.2,30.2,29.39,NNE,23,3.4,5.4,92,0.00,,,0.08,WUHU216HW,2013-01-30 11:34:00,
2013-01-30 05:39:00,32.2,30.4,29.40,NNW,338,3.4,4.9,93,0.00,,,0.08,WUHU216HW,2013-01-30 11:39:00,
2013-01-30 05:44:00,32.2,30.4,29.38,NNW,338,0.9,4.5,93,0.00,,,0.08,WUHU216HW,2013-01-30 11:44:00,
2013-01-30 05:49:00,32.4,30.6,29.37,South,180,0.7,5.1,93,0.00,,,0.08,WUHU216HW,2013-01-30 11:49:00,
2013-01-30 05:54:00,32.2,30.4,29.37,ENE,68,1.1,5.1,93,0.00,,,0.08,WUHU216HW,2013-01-30 11:54:00,
2013-01-30 05:59:00,32.2,30.4,29.36,SSW,203,1.1,5.6,93,0.00,,,0.08,WUHU216HW,2013-01-30 11:59:00,
2013-01-30 06:04:00,32.0,30.2,29.35,NNW,338,9.2,9.2,93,0.00,,,0.08,WUHU216HW,2013-01-30 12:04:00,
2013-01-30 06:09:00,32.0,30.1,29.35,ENE,68,3.8,9.2,92,0.00,,,0.08,WUHU216HW,2013-01-30 12:09:00,
2013-01-30 06:14:00,32.0,30.1,29.34,WSW,248,1.1,9.2,92,0.00,,,0.08,WUHU216HW,2013-01-30 12:14:00,
2013-01-30 06:19:00,32.0,30.1,29.35,NE,45,1.6,5.6,92,0.00,,,0.08,WUHU216HW,2013-01-30 12:19:00,
2013-01-30 06:24:00,32.0,30.1,29.35,NNW,338,6.9,6.9,92,0.00,,,0.08,WUHU216HW,2013-01-30 12:24:00,
2013-01-30 06:29:00,31.9,29.9,29.34,NE,45,3.4,6.9,92,0.00,,,0.08,WUHU216HW,2013-01-30 12:29:00,
2013-01-30 06:34:00,31.9,29.9,29.34,North,0,4.3,6.9,92,0.00,,,0.08,WUHU216HW,2013-01-30 12:34:00,
2013-01-30 06:39:00,31.7,29.7,29.33,SE,135,5.4,8.5,92,0.00,,,0.08,WUHU216HW,2013-01-30 12:39:00,
2013-01-30 06:44:00,31.7,29.7,29.34,NNE,23,2.7,8.5,92,0.00,,,0.08,WUHU216HW,2013-01-30 12:44:00,
2013-01-30 06:49:00,31.7,29.7,29.34,NNE,23,1.6,6.5,92,0.00,,,0.08,WUHU216HW,2013-01-30 12:49:00,
2013-01-30 06:54:00,31.7,29.7,29.34,NNE,23,2.2,6.5,92,0.00,,,0.08,WUHU216HW,2013-01-30 12:54:00,
2013-01-30 06:59:00,31.7,29.7,29.34,NNE,23,2.7,4.9,92,0.00,,,0.08,WUHU216HW,2013-01-30 12:59:00,
2013-01-30 07:04:00,31.7,29.7,29.34,NNE,23,2.5,4.9,92,0.00,,,0.08,WUHU216HW,2013-01-30 13:04:00,
2013-01-30 07:09:00,31.5,29.5,29.33,NNE,23,1.1,4.3,92,0.00,,,0.08,WUHU216HW,2013-01-30 13:09:00,
2013-01-30 07:14:00,31.5,29.5,29.33,NNE,23,3.1,3.1,92,0.00,,,0.08,WUHU216HW,2013-01-30 13:14:00,
2013-01-30 07:19:00,31.3,29.5,29.34,NNE,23,0.2,3.4,93,0.00,,,0.08,WUHU216HW,2013-01-30 13:19:00,
2013-01-30 07:24:00,31.3,29.5,29.34,NNE,23,0.0,3.4,93,0.00,,,0.08,WUHU216HW,2013-01-30 13:24:00,
2013-01-30 07:29:00,31.3,29.5,29.34,NNE,23,1.8,3.8,93,0.00,,,0.08,WUHU216HW,2013-01-30 13:29:00,
2013-01-30 07:34:00,31.3,29.5,29.34,NNE,23,0.4,3.8,93,0.00,,,0.08,WUHU216HW,2013-01-30 13:34:00,
2013-01-30 07:39:00,31.3,29.5,29.34,NNE,23,2.2,4.9,93,0.00,,,0.08,WUHU216HW,2013-01-30 13:39:00,
2013-01-30 07:45:00,31.3,29.5,29.33,NNE,23,1.6,4.9,93,0.00,,,0.08,WUHU216HW,2013-01-30 13:45:00,
2013-01-30 07:50:00,31.3,29.5,29.33,NNE,23,1.6,6.5,93,0.00,,,0.08,WUHU216HW,2013-01-30 13:50:00,
2013-01-30 07:55:00,31.3,29.5,29.34,NNE,23,0.9,6.5,93,0.00,,,0.08,WUHU216HW,2013-01-30 13:55:00,
2013-01-30 08:00:00,31.3,29.5,29.33,NNE,23,0.2,6.3,93,0.00,,,0.08,WUHU216HW,2013-01-30 14:00:00,
2013-01-30 08:06:00,31.3,29.5,29.34,NNE,23,2.2,6.3,93,0.00,,,0.08,WUHU216HW,2013-01-30 14:06:00,
2013-01-30 08:11:00,31.3,29.5,29.34,NNE,23,1.8,6.3,93,0.00,,,0.08,WUHU216HW,2013-01-30 14:11:00,
2013-01-30 08:16:00,31.3,29.5,29.33,NNE,23,0.0,3.4,93,0.00,,,0.08,WUHU216HW,2013-01-30 14:16:00,
2013-01-30 08:21:00,31.3,29.5,29.34,NNE,23,1.6,8.7,93,0.00,,,0.08,WUHU216HW,2013-01-30 14:21:00,
2013-01-30 08:26:00,31.1,29.3,29.33,NNE,23,1.3,8.7,93,0.00,,,0.08,WUHU216HW,2013-01-30 14:26:00,
2013-01-30 08:31:00,31.1,29.3,29.33,NNE,23,0.4,4.9,93,0.00,,,0.08,WUHU216HW,2013-01-30 14:31:00,
2013-01-30 08:36:00,31.3,29.5,29.32,NNE,23,2.5,3.8,93,0.00,,,0.08,WUHU216HW,2013-01-30 14:36:00,
2013-01-30 08:41:00,31.1,29.3,29.33,NNE,23,1.8,3.8,93,0.00,,,0.08,WUHU216HW,2013-01-30 14:41:00,
2013-01-30 08:46:00,31.3,29.5,29.33,NNE,23,2.0,3.4,93,0.00,,,0.08,WUHU216HW,2013-01-30 14:46:00,
2013-01-30 08:51:00,31.3,29.5,29.33,NNE,23,0.0,3.4,93,0.00,,,0.08,WUHU216HW,2013-01-30 14:51:00,
2013-01-30 08:56:00,31.3,29.5,29.32,NNE,23,1.1,2.7,93,0.00,,,0.08,WUHU216HW,2013-01-30 14:56:00,
2013-01-30 09:01:00,31.3,29.5,29.32,NNE,23,0.4,2.2,93,0.00,,,0.08,WUHU216HW,2013-01-30 15:01:00,
2013-01-30 09:06:00,31.3,29.5,29.32,NNE,23,4.0,4.0,93,0.00,,,0.08,WUHU216HW,2013-01-30 15:06:00,
2013-01-30 09:11:00,31.3,29.5,29.31,NNE,23,3.4,6.3,93,0.00,,,0.08,WUHU216HW,2013-01-30 15:11:00,
2013-01-30 09:16:00,31.1,29.3,29.31,NNE,23,2.7,6.3,93,0.00,,,0.08,WUHU216HW,2013-01-30 15:16:00,
2013-01-30 09:21:00,31.1,29.3,29.31,NNE,23,3.6,6.7,93,0.00,,,0.08,WUHU216HW,2013-01-30 15:21:00,
2013-01-30 09:26:00,31.0,29.2,29.31,NNE,23,4.0,9.4,93,0.00,,,0.08,WUHU216HW,2013-01-30 15:26:00,
2013-01-30 09:31:00,30.8,29.0,29.31,NNE,23,0.9,9.4,93,0.00,,,0.08,WUHU216HW,2013-01-30 15:31:00,
2013-01-30 09:36:00,30.8,29.0,29.31,NNE,23,6.3,6.3,93,0.00,,,0.08,WUHU216HW,2013-01-30 15:36:00,
2013-01-30 09:41:00,30.6,28.8,29.32,NNE,23,4.9,8.9,93,0.00,,,0.08,WUHU216HW,2013-01-30 15:41:00,
2013-01-30 09:46:00,30.4,28.6,29.31,NNE,23,8.7,9.2,93,0.00,,,0.08,WUHU216HW,2013-01-30 15:46:00,
2013-01-30 09:51:00,30.2,28.4,29.32,NNE,23,5.4,9.2,93,0.00,,,0.08,WUHU216HW,2013-01-30 15:51:00,
2013-01-30 09:56:00,30.2,28.4,29.32,NNE,23,8.7,9.2,93,0.00,,,0.08,WUHU216HW,2013-01-30 15:56:00,
2013-01-30 10:01:00,30.2,28.4,29.32,NNE,23,2.5,8.9,93,0.00,,,0.08,WUHU216HW,2013-01-30 16:01:00,
2013-01-30 10:06:00,30.1,28.3,29.32,NNE,23,5.8,8.9,93,0.00,,,0.08,WUHU216HW,2013-01-30 16:06:00,
2013-01-30 10:11:00,30.1,28.3,29.32,NNE,23,6.3,9.6,93,0.00,,,0.08,WUHU216HW,2013-01-30 16:11:00,
2013-01-30 10:16:00,29.9,28.1,29.33,NNE,23,5.6,9.8,93,0.00,,,0.08,WUHU216HW,2013-01-30 16:16:00,
2013-01-30 10:21:00,29.9,28.1,29.33,NNE,23,6.0,9.8,93,0.00,,,0.08,WUHU216HW,2013-01-30 16:21:00,
2013-01-30 10:26:00,29.9,28.1,29.33,NNE,23,6.3,9.6,93,0.00,,,0.08,WUHU216HW,2013-01-30 16:26:00,
2013-01-30 10:31:00,29.7,27.9,29.34,NNE,23,7.8,10.5,93,0.00,,,0.08,WUHU216HW,2013-01-30 16:31:00,
2013-01-30 10:36:00,29.7,27.9,29.34,NNE,23,6.3,10.5,93,0.00,,,0.08,WUHU216HW,2013-01-30 16:36:00,
2013-01-30 10:41:00,29.9,28.1,29.33,NNE,23,5.4,7.8,93,0.00,,,0.08,WUHU216HW,2013-01-30 16:41:00,
2013-01-30 10:46:00,29.9,28.1,29.33,NNE,23,4.5,7.6,93,0.00,,,0.08,WUHU216HW,2013-01-30 16:46:00,
2013-01-30 10:51:00,29.9,28.1,29.33,NNE,23,7.4,7.4,93,0.00,,,0.08,WUHU216HW,2013-01-30 16:51:00,
2013-01-30 10:56:00,29.9,28.1,29.32,NNE,23,7.6,7.8,93,0.00,,,0.08,WUHU216HW,2013-01-30 16:56:00,
2013-01-30 11:01:00,30.1,28.3,29.32,NNE,23,8.9,8.9,93,0.00,,,0.08,WUHU216HW,2013-01-30 17:01:00,
2013-01-30 11:06:00,30.1,28.3,29.32,NNE,23,5.4,8.9,93,0.00,,,0.08,WUHU216HW,2013-01-30 17:06:00,
2013-01-30 11:11:00,30.1,28.3,29.32,NNE,23,6.7,8.7,93,0.00,,,0.08,WUHU216HW,2013-01-30 17:11:00,
2013-01-30 11:16:00,29.9,28.1,29.32,NNE,23,2.9,8.5,93,0.00,,,0.08,WUHU216HW,2013-01-30 17:16:00,
2013-01-30 11:21:00,29.9,28.1,29.33,NNE,23,9.8,9.8,93,0.00,,,0.08,WUHU216HW,2013-01-30 17:21:00,
2013-01-30 11:26:00,29.5,27.7,29.33,NNE,23,6.9,11.9,93,0.00,,,0.08,WUHU216HW,2013-01-30 17:26:00,
2013-01-30 11:31:00,29.3,27.5,29.32,NNE,23,8.5,11.9,93,0.00,,,0.08,WUHU216HW,2013-01-30 17:31:00,
2013-01-30 11:36:00,29.2,27.4,29.32,NNE,23,4.5,11.0,93,0.00,,,0.08,WUHU216HW,2013-01-30 17:36:00,
2013-01-30 11:41:00,29.2,27.4,29.32,NNE,23,8.9,11.0,93,0.00,,,0.08,WUHU216HW,2013-01-30 17:41:00,
2013-01-30 11:46:00,29.3,27.5,29.32,NNE,23,4.7,8.9,93,0.00,,,0.08,WUHU216HW,2013-01-30 17:46:00,
2013-01-30 11:51:00,29.2,27.4,29.32,NNE,23,5.1,8.9,93,0.00,,,0.08,WUHU216HW,2013-01-30 17:51:00,
2013-01-30 11:56:00,28.8,27.0,29.31,NNE,23,4.3,9.2,93,0.00,,,0.08,WUHU216HW,2013-01-30 17:56:00,
2013-01-30 12:01:00,28.6,26.8,29.31,NNE,23,4.3,9.2,93,0.00,,,0.08,WUHU216HW,2013-01-30 18:01:00,
2013-01-30 12:06:00,28.4,26.6,29.30,NNE,23,11.2,11.4,93,0.00,,,0.08,WUHU216HW,2013-01-30 18:06:00,
2013-01-30 12:11:00,28.3,26.5,29.30,NNE,23,7.2,11.4,93,0.00,,,0.08,WUHU216HW,2013-01-30 18:11:00,
2013-01-30 12:16:00,28.3,26.5,29.30,NNE,23,5.4,11.4,93,0.00,,,0.08,WUHU216HW,2013-01-30 18:16:00,
2013-01-30 12:21:00,28.4,26.6,29.31,NNE,23,7.4,11.4,93,0.00,,,0.08,WUHU216HW,2013-01-30 18:21:00,
2013-01-30 12:26:00,28.6,26.8,29.31,NNE,23,4.7,11.4,93,0.00,,,0.08,WUHU216HW,2013-01-30 18:26:00,
2013-01-30 12:31:00,28.6,26.8,29.30,NNE,23,7.8,10.1,93,0.00,,,0.08,WUHU216HW,2013-01-30 18:31:00,
2013-01-30 12:36:00,28.4,26.6,29.31,NNE,23,4.9,10.3,93,0.00,,,0.08,WUHU216HW,2013-01-30 18:36:00,
2013-01-30 12:41:00,28.4,26.6,29.31,NNE,23,6.3,10.3,93,0.00,,,0.08,WUHU216HW,2013-01-30 18:41:00,
2013-01-30 12:46:00,28.3,26.5,29.30,NNE,23,6.9,8.3,93,0.00,,,0.08,WUHU216HW,2013-01-30 18:46:00,
2013-01-30 12:51:00,28.3,26.3,29.30,NNE,23,7.2,9.8,92,0.00,,,0.08,WUHU216HW,2013-01-30 18:51:00,
2013-01-30 12:56:00,27.9,25.9,29.30,NNE,23,7.8,9.8,92,0.00,,,0.08,WUHU216HW,2013-01-30 18:56:00,
2013-01-30 13:01:00,27.9,25.9,29.30,NNE,23,8.5,9.4,92,0.00,,,0.08,WUHU216HW,2013-01-30 19:01:00,
2013-01-30 13:06:00,27.9,25.9,29.30,NNE,23,5.4,9.4,92,0.00,,,0.08,WUHU216HW,2013-01-30 19:06:00,
2013-01-30 13:11:00,27.7,25.8,29.30,NNE,23,6.0,11.4,92,0.00,,,0.08,WUHU216HW,2013-01-30 19:11:00,
2013-01-30 13:16:00,27.7,25.8,29.30,NNE,23,6.3,11.4,92,0.00,,,0.08,WUHU216HW,2013-01-30 19:16:00,
2013-01-30 13:21:00,27.7,25.8,29.30,NNE,23,9.4,11.2,92,0.00,,,0.08,WUHU216HW,2013-01-30 19:21:00,
2013-01-30 13:26:00,27.7,25.8,29.30,NNE,23,4.0,11.2,92,0.00,,,0.08,WUHU216HW,2013-01-30 19:26:00,
2013-01-30 13:31:00,28.1,26.1,29.31,NNE,23,4.3,10.3,92,0.00,,,0.08,WUHU216HW,2013-01-30 19:31:00,
2013-01-30 13:36:00,28.3,26.3,29.31,NNE,23,4.5,9.8,92,0.00,,,0.08,WUHU216HW,2013-01-30 19:36:00,
2013-01-30 13:41:00,28.1,26.1,29.31,NNE,23,9.4,9.4,92,0.00,,,0.08,WUHU216HW,2013-01-30 19:41:00,
2013-01-30 13:46:00,27.9,25.7,29.31,NNE,23,5.4,11.6,91,0.00,,,0.08,WUHU216HW,2013-01-30 19:46:00,
2013-01-30 13:51:00,27.7,25.5,29.31,NNE,23,11.9,11.9,91,0.00,,,0.08,WUHU216HW,2013-01-30 19:51:00,
2013-01-30 13:56:00,28.1,25.8,29.31,NNE,23,6.9,11.9,91,0.00,,,0.08,WUHU216HW,2013-01-30 19:56:00,
2013-01-30 14:01:00,28.1,25.8,29.31,NNE,23,6.9,10.5,91,0.00,,,0.08,WUHU216HW,2013-01-30 20:01:00,
2013-01-30 14:06:00,28.1,25.8,29.31,NNE,23,6.9,11.2,91,0.00,,,0.08,WUHU216HW,2013-01-30 20:06:00,
2013-01-30 14:11:00,28.4,26.2,29.31,NNE,23,6.9,11.2,91,0.00,,,0.08,WUHU216HW,2013-01-30 20:11:00,
2013-01-30 14:16:00,28.3,25.7,29.31,NNE,23,4.5,10.7,90,0.00,,,0.08,WUHU216HW,2013-01-30 20:16:00,
2013-01-30 14:21:00,28.1,25.6,29.31,NNE,23,4.9,10.7,90,0.00,,,0.08,WUHU216HW,2013-01-30 20:21:00,
2013-01-30 14:26:00,27.9,25.4,29.32,NNE,23,8.5,10.7,90,0.00,,,0.08,WUHU216HW,2013-01-30 20:26:00,
2013-01-30 14:31:00,27.7,25.2,29.32,NNE,23,9.2,10.7,90,0.00,,,0.08,WUHU216HW,2013-01-30 20:31:00,
2013-01-30 14:36:00,27.5,25.0,29.32,NNE,23,5.8,10.1,90,0.00,,,0.08,WUHU216HW,2013-01-30 20:36:00,
2013-01-30 14:41:00,27.5,25.0,29.32,NNE,23,7.6,9.8,90,0.00,,,0.08,WUHU216HW,2013-01-30 20:41:00,
2013-01-30 14:46:00,27.5,25.0,29.32,NNE,23,8.7,9.8,90,0.00,,,0.08,WUHU216HW,2013-01-30 20:46:00,
2013-01-30 14:51:00,27.0,24.5,29.32,NNE,23,8.5,12.1,90,0.00,,,0.08,WUHU216HW,2013-01-30 20:51:00,
2013-01-30 14:56:00,27.0,24.5,29.33,NNE,23,9.2,12.1,90,0.00,,,0.08,WUHU216HW,2013-01-30 20:56:00,
2013-01-30 15:01:00,26.6,23.9,29.33,NNE,23,9.8,13.4,89,0.00,,,0.08,WUHU216HW,2013-01-30 21:01:00,
2013-01-30 15:06:00,26.6,23.9,29.33,NNE,23,10.7,13.4,89,0.00,,,0.08,WUHU216HW,2013-01-30 21:06:00,
2013-01-30 15:11:00,26.5,23.7,29.34,NNE,23,5.6,12.5,89,0.00,,,0.08,WUHU216HW,2013-01-30 21:11:00,
2013-01-30 15:16:00,26.3,23.8,29.34,NNE,23,10.3,12.5,90,0.00,,,0.08,WUHU216HW,2013-01-30 21:16:00,
2013-01-30 15:21:00,26.3,23.5,29.34,NNE,23,11.2,12.5,89,0.00,,,0.08,WUHU216HW,2013-01-30 21:21:00,
2013-01-30 15:26:00,26.1,23.3,29.34,NNE,23,7.6,13.2,89,0.00,,,0.08,WUHU216HW,2013-01-30 21:26:00,
2013-01-30 15:31:00,26.1,23.3,29.34,NNE,23,13.6,13.6,89,0.00,,,0.08,WUHU216HW,2013-01-30 21:31:00,
2013-01-30 15:36:00,26.1,23.3,29.34,NNE,23,9.6,13.6,89,0.00,,,0.08,WUHU216HW,2013-01-30 21:36:00,
2013-01-30 15:41:00,25.9,23.1,29.34,NNE,23,9.2,13.4,89,0.00,,,0.08,WUHU216HW,2013-01-30 21:41:00,
2013-01-30 15:46:00,25.7,23.0,29.34,NNE,23,9.6,13.4,89,0.00,,,0.08,WUHU216HW,2013-01-30 21:46:00,
2013-01-30 15:51:00,25.6,22.8,29.35,NNE,23,8.5,12.8,89,0.00,,,0.08,WUHU216HW,2013-01-30 21:51:00,
2013-01-30 15:56:00,25.4,22.6,29.35,NNE,23,8.7,12.8,89,0.00,,,0.08,WUHU216HW,2013-01-30 21:56:00,
2013-01-30 16:01:00,25.4,22.6,29.36,NNE,23,4.3,11.9,89,0.00,,,0.08,WUHU216HW,2013-01-30 22:01:00,
2013-01-30 16:06:00,25.2,22.4,29.36,NNE,23,7.6,11.9,89,0.00,,,0.08,WUHU216HW,2013-01-30 22:06:00,
2013-01-30 16:11:00,25.2,22.7,29.37,NNE,23,11.0,11.9,90,0.00,,,0.08,WUHU216HW,2013-01-30 22:11:00,
2013-01-30 16:16:00,25.2,23.0,29.37,NNE,23,10.5,12.1,91,0.00,,,0.08,WUHU216HW,2013-01-30 22:16:00,
2013-01-30 16:21:00,24.8,22.3,29.37,NNE,23,9.8,12.8,90,0.00,,,0.08,WUHU216HW,2013-01-30 22:21:00,
2013-01-30 16:26:00,24.8,22.3,29.37,NNE,23,6.7,12.8,90,0.00,,,0.08,WUHU216HW,2013-01-30 22:26:00,
2013-01-30 16:31:00,24.5,22.0,29.37,NNE,23,8.7,10.7,90,0.00,,,0.08,WUHU216HW,2013-01-30 22:31:00,
2013-01-30 16:36:00,24.1,21.6,29.38,NNE,23,11.4,16.1,90,0.00,,,0.08,WUHU216HW,2013-01-30 22:36:00,
2013-01-30 16:41:00,23.8,21.2,29.38,NNE,23,9.6,16.1,90,0.00,,,0.08,WUHU216HW,2013-01-30 22:41:00,
2013-01-30 16:46:00,23.4,20.9,29.38,NNE,23,13.0,14.1,90,0.00,,,0.08,WUHU216HW,2013-01-30 22:46:00,
2013-01-30 16:51:00,23.4,20.9,29.39,NNE,23,6.7,14.1,90,0.00,,,0.08,WUHU216HW,2013-01-30 22:51:00,
2013-01-30 16:57:00,23.2,20.7,29.39,NNE,23,8.5,13.2,90,0.00,,,0.08,WUHU216HW,2013-01-30 22:57:00,
2013-01-30 17:02:00,23.0,20.5,29.39,NNE,23,14.3,14.3,90,0.00,,,0.08,WUHU216HW,2013-01-30 23:02:00,
2013-01-30 17:07:00,22.5,20.0,29.40,NNE,23,8.5,14.5,90,0.00,,,0.08,WUHU216HW,2013-01-30 23:07:00,
2013-01-30 17:12:00,22.1,19.6,29.40,NNE,23,6.9,14.5,90,0.00,,,0.08,WUHU216HW,2013-01-30 23:12:00,
2013-01-30 17:17:00,21.8,19.3,29.41,NNE,23,9.8,13.9,90,0.00,,,0.08,WUHU216HW,2013-01-30 23:17:00,
2013-01-30 17:22:00,21.6,19.1,29.41,NNE,23,6.7,13.9,90,0.00,,,0.08,WUHU216HW,2013-01-30 23:22:00,
2013-01-30 17:27:00,21.4,18.9,29.41,NNE,23,8.9,11.4,90,0.00,,,0.08,WUHU216HW,2013-01-30 23:27:00,
2013-01-30 17:32:00,21.1,18.3,29.42,NNE,23,8.7,11.4,89,0.00,,,0.08,WUHU216HW,2013-01-30 23:32:00,
2013-01-30 17:37:00,20.9,18.1,29.42,NNE,23,8.7,12.5,89,0.00,,,0.08,WUHU216HW,2013-01-30 23:37:00,
2013-01-30 17:42:00,20.7,17.9,29.42,NNE,23,10.5,12.5,89,0.00,,,0.08,WUHU216HW,2013-01-30 23:42:00,
2013-01-30 17:47:00,20.5,17.5,29.43,NNE,23,11.2,12.5,88,0.00,,,0.08,WUHU216HW,2013-01-30 23:47:00,
2013-01-30 17:52:00,20.5,17.5,29.43,NNE,23,10.5,12.8,88,0.00,,,0.08,WUHU216HW,2013-01-30 23:52:00,
2013-01-30 17:57:00,20.3,17.3,29.43,NNE,23,10.3,13.4,88,0.00,,,0.08,WUHU216HW,2013-01-30 23:57:00,
2013-01-30 18:02:00,20.2,16.8,29.44,NNE,23,9.4,13.4,87,0.00,,,0.08,WUHU216HW,2013-01-31 00:02:00,
2013-01-30 18:07:00,20.2,16.8,29.44,NNE,23,8.7,17.2,87,0.00,,,0.08,WUHU216HW,2013-01-31 00:07:00,
2013-01-30 18:12:00,20.2,16.8,29.44,NNE,23,7.6,17.2,87,0.00,,,0.08,WUHU216HW,2013-01-31 00:12:00,
2013-01-30 18:17:00,20.2,16.8,29.44,NNE,23,6.7,13.4,87,0.00,,,0.08,WUHU216HW,2013-01-31 00:17:00,
2013-01-30 18:22:00,20.2,16.8,29.44,NNE,23,7.2,11.6,87,0.00,,,0.08,WUHU216HW,2013-01-31 00:22:00,
2013-01-30 18:27:00,20.0,16.7,29.45,NNE,23,9.2,11.6,87,0.00,,,0.08,WUHU216HW,2013-01-31 00:27:00,
2013-01-30 18:32:00,19.8,16.5,29.45,NNE,23,7.6,13.2,87,0.00,,,0.08,WUHU216HW,2013-01-31 00:32:00,
2013-01-30 18:37:00,19.8,16.5,29.45,NNE,23,4.7,13.2,87,0.00,,,0.08,WUHU216HW,2013-01-31 00:37:00,
2013-01-30 18:42:00,19.4,16.1,29.45,NNE,23,10.3,11.9,87,0.00,,,0.08,WUHU216HW,2013-01-31 00:42:00,
2013-01-30 18:47:00,19.3,15.7,29.46,NNE,23,8.1,14.1,86,0.00,,,0.08,WUHU216HW,2013-01-31 00:47:00,
2013-01-30 18:52:00,19.1,15.5,29.46,NNE,23,5.4,15.0,86,0.00,,,0.08,WUHU216HW,2013-01-31 00:52:00,
2013-01-30 18:57:00,18.9,15.3,29.46,NNE,23,9.6,15.0,86,0.00,,,0.08,WUHU216HW,2013-01-31 00:57:00,
2013-01-30 19:02:00,18.7,15.4,29.47,NNE,23,9.2,13.4,87,0.00,,,0.08,WUHU216HW,2013-01-31 01:02:00,
2013-01-30 19:07:00,18.5,15.2,29.47,NNE,23,10.5,13.2,87,0.00,,,0.08,WUHU216HW,2013-01-31 01:07:00,
2013-01-30 19:12:00,18.5,15.2,29.47,NNE,23,7.4,11.6,87,0.00,,,0.08,WUHU216HW,2013-01-31 01:12:00,
2013-01-30 19:17:00,18.5,15.2,29.47,NNE,23,6.5,10.5,87,0.00,,,0.08,WUHU216HW,2013-01-31 01:17:00,
2013-01-30 19:22:00,18.5,15.2,29.47,NNE,23,12.1,12.1,87,0.00,,,0.08,WUHU216HW,2013-01-31 01:22:00,
2013-01-30 19:27:00,18.4,14.8,29.47,NNE,23,12.1,13.0,86,0.00,,,0.08,WUHU216HW,2013-01-31 01:27:00,
2013-01-30 19:32:00,18.4,14.8,29.47,NNE,23,6.7,13.4,86,0.00,,,0.08,WUHU216HW,2013-01-31 01:32:00,
2013-01-30 19:37:00,18.4,14.8,29.48,NNE,23,10.5,13.4,86,0.00,,,0.08,WUHU216HW,2013-01-31 01:37:00,
2013-01-30 19:42:00,18.4,14.8,29.48,NNE,23,11.0,13.2,86,0.00,,,0.08,WUHU216HW,2013-01-31 01:42:00,
2013-01-30 19:47:00,18.4,15.0,29.48,NNE,23,11.4,11.9,87,0.00,,,0.08,WUHU216HW,2013-01-31 01:47:00,
2013-01-30 19:52:00,18.0,14.7,29.48,NNE,23,6.9,13.6,87,0.00,,,0.08,WUHU216HW,2013-01-31 01:52:00,
2013-01-30 19:57:00,17.8,14.5,29.48,NNE,23,11.6,13.6,87,0.00,,,0.08,WUHU216HW,2013-01-31 01:57:00,
2013-01-30 20:02:00,17.8,14.8,29.49,NNE,23,6.5,11.6,88,0.00,,,0.08,WUHU216HW,2013-01-31 02:02:00,
2013-01-30 20:07:00,17.6,14.3,29.49,NNE,23,6.5,11.6,87,0.00,,,0.08,WUHU216HW,2013-01-31 02:07:00,
2013-01-30 20:12:00,17.6,14.3,29.49,NNE,23,10.5,10.5,87,0.00,,,0.08,WUHU216HW,2013-01-31 02:12:00,
2013-01-30 20:17:00,17.3,14.0,29.49,NNE,23,5.4,11.4,87,0.00,,,0.08,WUHU216HW,2013-01-31 02:17:00,
2013-01-30 20:22:00,17.1,13.8,29.50,NNE,23,10.3,11.9,87,0.00,,,0.08,WUHU216HW,2013-01-31 02:22:00,
2013-01-30 20:27:00,16.9,13.6,29.50,NNE,23,9.2,12.8,87,0.00,,,0.08,WUHU216HW,2013-01-31 02:27:00,
2013-01-30 20:32:00,16.7,13.4,29.50,NNE,23,9.2,12.8,87,0.00,,,0.08,WUHU216HW,2013-01-31 02:32:00,
2013-01-30 20:37:00,16.6,13.0,29.50,NNE,23,12.1,14.1,86,0.00,,,0.08,WUHU216HW,2013-01-31 02:37:00,
2013-01-30 20:42:00,16.4,12.9,29.50,NNE,23,8.3,14.1,86,0.00,,,0.08,WUHU216HW,2013-01-31 02:42:00,
2013-01-30 20:47:00,16.2,12.7,29.50,NNE,23,8.5,12.1,86,0.00,,,0.08,WUHU216HW,2013-01-31 02:47:00,
2013-01-30 20:52:00,16.2,12.7,29.51,NNE,23,6.5,10.3,86,0.00,,,0.08,WUHU216HW,2013-01-31 02:52:00,
2013-01-30 20:57:00,16.2,12.7,29.51,NNE,23,6.9,9.2,86,0.00,,,0.08,WUHU216HW,2013-01-31 02:57:00,
2013-01-30 21:02:00,16.2,12.4,29.52,NNE,23,8.7,11.0,85,0.00,,,0.08,WUHU216HW,2013-01-31 03:02:00,
2013-01-30 21:07:00,16.0,12.3,29.52,NNE,23,4.9,11.0,85,0.00,,,0.08,WUHU216HW,2013-01-31 03:07:00,
2013-01-30 21:12:00,15.8,11.8,29.52,NNE,23,5.8,12.1,84,0.00,,,0.08,WUHU216HW,2013-01-31 03:12:00,
2013-01-30 21:17:00,15.8,11.8,29.52,NNE,23,6.3,12.1,84,0.00,,,0.08,WUHU216HW,2013-01-31 03:17:00,
2013-01-30 21:22:00,15.7,11.3,29.52,NNE,23,6.3,12.5,83,0.00,,,0.08,WUHU216HW,2013-01-31 03:22:00,
2013-01-30 21:27:00,15.3,11.1,29.52,NNE,23,6.3,12.5,83,0.00,,,0.08,WUHU216HW,2013-01-31 03:27:00,
2013-01-30 21:32:00,15.3,11.1,29.53,NNE,23,6.3,8.1,83,0.00,,,0.08,WUHU216HW,2013-01-31 03:32:00,
2013-01-30 21:37:00,15.1,10.9,29.53,NNE,23,3.8,8.1,83,0.00,,,0.08,WUHU216HW,2013-01-31 03:37:00,
2013-01-30 21:43:00,14.9,10.7,29.53,NNE,23,7.6,8.1,83,0.00,,,0.08,WUHU216HW,2013-01-31 03:43:00,
2013-01-30 21:48:00,15.1,10.9,29.53,NNE,23,3.1,8.1,83,0.00,,,0.08,WUHU216HW,2013-01-31 03:48:00,
2013-01-30 21:53:00,15.1,10.9,29.53,NNE,23,7.6,9.8,83,0.00,,,0.08,WUHU216HW,2013-01-31 03:53:00,
2013-01-30 21:58:00,15.3,10.8,29.53,NNE,23,7.6,11.2,82,0.00,,,0.08,WUHU216HW,2013-01-31 03:58:00,
2013-01-30 22:03:00,15.5,11.0,29.54,NNE,23,6.3,11.2,82,0.00,,,0.08,WUHU216HW,2013-01-31 04:03:00,
2013-01-30 22:08:00,15.5,11.3,29.54,NNE,23,4.0,8.5,83,0.00,,,0.08,WUHU216HW,2013-01-31 04:08:00,
2013-01-30 22:13:00,15.7,11.3,29.54,NNE,23,3.1,7.6,83,0.00,,,0.08,WUHU216HW,2013-01-31 04:13:00,
2013-01-30 22:18:00,15.8,11.8,29.55,NNE,23,4.5,7.8,84,0.00,,,0.08,WUHU216HW,2013-01-31 04:18:00,
2013-01-30 22:23:00,15.8,11.8,29.55,NNE,23,4.7,9.2,84,0.00,,,0.08,WUHU216HW,2013-01-31 04:23:00,
2013-01-30 22:28:00,15.7,11.6,29.55,NNE,23,6.0,9.2,84,0.00,,,0.08,WUHU216HW,2013-01-31 04:28:00,
2013-01-30 22:33:00,15.5,11.4,29.55,NNE,23,5.4,6.7,84,0.00,,,0.08,WUHU216HW,2013-01-31 04:33:00,
2013-01-30 22:38:00,15.5,11.4,29.55,NNE,23,3.1,7.6,84,0.00,,,0.08,WUHU216HW,2013-01-31 04:38:00,
2013-01-30 22:43:00,15.3,11.1,29.55,NNE,23,7.4,9.8,83,0.00,,,0.08,WUHU216HW,2013-01-31 04:43:00,
2013-01-30 22:48:00,15.1,10.9,29.55,NNE,23,10.1,12.8,83,0.00,,,0.08,WUHU216HW,2013-01-31 04:48:00,
2013-01-30 22:53:00,15.1,10.6,29.55,NNE,23,6.3,12.8,82,0.00,,,0.08,WUHU216HW,2013-01-31 04:53:00,
2013-01-30 22:58:00,15.1,10.9,29.56,NNE,23,4.9,11.2,83,0.00,,,0.08,WUHU216HW,2013-01-31 04:58:00,
2013-01-30 23:00:00,15.1,10.9,29.56,NNE,23,2.9,7.6,83,0.00,,,0.08,WUHU216HW,2013-01-31 05:00:00,
2013-01-30 23:01:00,15.1,10.9,29.56,NNE,23,4.7,7.6,83,0.00,,,0.08,WUHU216HW,2013-01-31 05:01:00,
2013-01-30 23:02:00,15.1,10.9,29.56,NNE,23,4.3,7.6,83,0.00,,,0.08,WUHU216HW,2013-01-31 05:02:00,
2013-01-30 23:07:00,15.1,10.9,29.56,NNE,23,4.9,7.4,83,0.00,,,0.08,WUHU216HW,2013-01-31 05:07:00,
2013-01-30 23:12:00,14.9,10.7,29.57,NNE,23,6.3,7.6,83,0.00,,,0.08,WUHU216HW,2013-01-31 05:12:00,
2013-01-30 23:17:00,14.9,10.7,29.57,NNE,23,3.4,7.6,83,0.00,,,0.08,WUHU216HW,2013-01-31 05:17:00,
2013-01-30 23:22:00,14.9,10.5,29.57,NNE,23,4.0,9.2,82,0.00,,,0.08,WUHU216HW,2013-01-31 05:22:00,
2013-01-30 23:27:00,14.8,10.3,29.57,NNE,23,6.0,9.2,82,0.00,,,0.08,WUHU216HW,2013-01-31 05:27:00,
2013-01-30 23:32:00,14.8,10.3,29.58,NNE,23,4.0,8.1,82,0.00,,,0.08,WUHU216HW,2013-01-31 05:32:00,
2013-01-30 23:37:00,14.8,10.3,29.58,NNE,23,4.0,7.6,82,0.00,,,0.08,WUHU216HW,2013-01-31 05:37:00,
2013-01-30 23:42:00,14.8,10.3,29.58,NNE,23,3.6,7.4,82,0.00,,,0.08,WUHU216HW,2013-01-31 05:42:00,
2013-01-30 23:47:00,14.8,10.3,29.58,NNE,23,6.7,7.2,82,0.00,,,0.08,WUHU216HW,2013-01-31 05:47:00,
2013-01-30 23:52:00,14.8,10.3,29.58,NNE,23,4.3,8.5,82,0.00,,,0.08,WUHU216HW,2013-01-31 05:52:00,
2013-01-30 23:57:00,14.8,10.3,29.58,NNE,23,4.7,8.5,82,0.00,,,0.08,WUHU216HW,2013-01-31 05:57:00,